Okotoks, Canada
Current Conditions -  °F | °C
As of 1:00 AM on Tuesday 27 Jan 2015 (Local Time) from CYYC Reporting Station
Few Clouds Few Clouds  
Wind Chill: 45°   Ceiling: Unl
Heat Index: 45°   Visibility: 15mi
Dew Point: 25°   Wind: 3mph
Humidity: 46%   Direction: NA
Pressure: 29.74"   Gusts: NA
Location:  50.73°N, 113.97°W
Report Text: CYYC 270800Z VRB03KT 15SM FEW250 07/M04 A2974 RMK CS2 SLP090
Loading
Personal Weather Stations






























Interactive Weather Map New forecast layout! Learn more

10-Day Weather Forecast

Advertisements
Track Severe Weather on mobile